sensor_id;sensor_type;location;lat;lon;timestamp;temperature;humidity
7411;DHT22;3747;48.628;9.058;2023-04-08T00:00:26;5.80;99.90
7411;DHT22;3747;48.628;9.058;2023-04-08T00:02:53;5.80;99.90
7411;DHT22;3747;48.628;9.058;2023-04-08T00:05:20;5.70;99.90
7411;DHT22;3747;48.628;9.058;2023-04-08T00:07:46;5.80;99.90
7411;DHT22;3747;48.628;9.058;2023-04-08T00:10:14;5.70;99.90
7411;DHT22;3747;48.628;9.058;2023-04-08T00:12:41;5.80;99.90
7411;DHT22;3747;48.628;9.058;2023-04-08T00:15:08;5.90;99.90
7411;DHT22;3747;48.628;9.058;2023-04-08T00:17:35;5.80;99.90
7411;DHT22;3747;48.628;9.058;2023-04-08T00:20:02;5.80;99.90
7411;DHT22;3747;48.628;9.058;2023-04-08T00:22:29;5.80;99.90
7411;DHT22;3747;48.628;9.058;2023-04-08T00:24:56;5.70;99.90
7411;DHT22;3747;48.628;9.058;2023-04-08T00:27:24;5.80;99.90
7411;DHT22;3747;48.628;9.058;2023-04-08T00:29:51;5.80;99.90
7411;DHT22;3747;48.628;9.058;2023-04-08T00:32:18;5.90;99.90
7411;DHT22;3747;48.628;9.058;2023-04-08T00:34:44;5.90;99.90
7411;DHT22;3747;48.628;9.058;2023-04-08T00:37:11;5.90;99.90
7411;DHT22;3747;48.628;9.058;2023-04-08T00:39:38;5.90;99.90
7411;DHT22;3747;48.628;9.058;2023-04-08T00:42:04;6.00;99.90
7411;DHT22;3747;48.628;9.058;2023-04-08T00:44:32;5.90;99.90
7411;DHT22;3747;48.628;9.058;2023-04-08T00:46:59;6.00;99.90
7411;DHT22;3747;48.628;9.058;2023-04-08T00:49:26;6.00;99.90
7411;DHT22;3747;48.628;9.058;2023-04-08T00:51:53;6.10;99.90
7411;DHT22;3747;48.628;9.058;2023-04-08T00:54:19;6.10;99.90
7411;DHT22;3747;48.628;9.058;2023-04-08T00:56:46;6.10;99.90
7411;DHT22;3747;48.628;9.058;2023-04-08T00:59:13;6.10;99.90
7411;DHT22;3747;48.628;9.058;2023-04-08T01:01:44;6.20;99.90
7411;DHT22;3747;48.628;9.058;2023-04-08T01:04:21;6.20;99.90
7411;DHT22;3747;48.628;9.058;2023-04-08T01:06:58;6.20;99.90
7411;DHT22;3747;48.628;9.058;2023-04-08T01:09:29;6.20;99.90
7411;DHT22;3747;48.628;9.058;2023-04-08T01:12:00;6.10;99.90
7411;DHT22;3747;48.628;9.058;2023-04-08T01:14:29;6.10;99.90
7411;DHT22;3747;48.628;9.058;2023-04-08T01:16:59;6.10;99.90
7411;DHT22;3747;48.628;9.058;2023-04-08T01:19:29;6.10;99.90
7411;DHT22;3747;48.628;9.058;2023-04-08T01:22:02;6.00;99.90
7411;DHT22;3747;48.628;9.058;2023-04-08T01:24:35;6.00;99.90
7411;DHT22;3747;48.628;9.058;2023-04-08T01:27:04;5.90;99.90
7411;DHT22;3747;48.628;9.058;2023-04-08T01:29:33;5.90;99.90
7411;DHT22;3747;48.628;9.058;2023-04-08T01:32:01;5.90;99.90
7411;DHT22;3747;48.628;9.058;2023-04-08T01:34:28;5.90;99.90
7411;DHT22;3747;48.628;9.058;2023-04-08T01:36:56;5.90;99.90
7411;DHT22;3747;48.628;9.058;2023-04-08T01:39:24;5.90;99.90
7411;DHT22;3747;48.628;9.058;2023-04-08T01:41:52;5.80;99.90
7411;DHT22;3747;48.628;9.058;2023-04-08T01:44:22;5.80;99.90
7411;DHT22;3747;48.628;9.058;2023-04-08T01:46:50;5.80;99.90
7411;DHT22;3747;48.628;9.058;2023-04-08T01:49:18;5.80;99.90
7411;DHT22;3747;48.628;9.058;2023-04-08T01:51:46;5.80;99.90
7411;DHT22;3747;48.628;9.058;2023-04-08T01:54:13;5.80;99.90
7411;DHT22;3747;48.628;9.058;2023-04-08T01:56:41;5.80;99.90
7411;DHT22;3747;48.628;9.058;2023-04-08T01:59:12;5.70;99.90
7411;DHT22;3747;48.628;9.058;2023-04-08T02:01:43;5.70;99.90
7411;DHT22;3747;48.628;9.058;2023-04-08T02:04:10;5.70;99.90
7411;DHT22;3747;48.628;9.058;2023-04-08T02:06:38;5.70;99.90
7411;DHT22;3747;48.628;9.058;2023-04-08T02:09:05;5.70;99.90
7411;DHT22;3747;48.628;9.058;2023-04-08T02:11:32;5.60;99.90
7411;DHT22;3747;48.628;9.058;2023-04-08T02:13:58;5.70;99.90
7411;DHT22;3747;48.628;9.058;2023-04-08T02:16:30;5.70;99.90
7411;DHT22;3747;48.628;9.058;2023-04-08T02:19:04;5.60;99.90
7411;DHT22;3747;48.628;9.058;2023-04-08T02:21:35;5.70;99.90
7411;DHT22;3747;48.628;9.058;2023-04-08T02:24:06;5.70;99.90
7411;DHT22;3747;48.628;9.058;2023-04-08T02:26:35;5.70;99.90
7411;DHT22;3747;48.628;9.058;2023-04-08T02:29:03;5.80;99.90
7411;DHT22;3747;48.628;9.058;2023-04-08T02:31:31;5.80;99.90
7411;DHT22;3747;48.628;9.058;2023-04-08T02:34:00;5.80;99.90
7411;DHT22;3747;48.628;9.058;2023-04-08T02:36:27;5.80;99.90
7411;DHT22;3747;48.628;9.058;2023-04-08T02:38:54;5.70;99.90
7411;DHT22;3747;48.628;9.058;2023-04-08T02:41:20;5.70;99.90
7411;DHT22;3747;48.628;9.058;2023-04-08T02:43:47;5.60;99.90
7411;DHT22;3747;48.628;9.058;2023-04-08T02:46:14;5.60;99.90
7411;DHT22;3747;48.628;9.058;2023-04-08T02:48:40;5.50;99.90
7411;DHT22;3747;48.628;9.058;2023-04-08T02:51:08;5.50;99.90
7411;DHT22;3747;48.628;9.058;2023-04-08T02:53:35;5.40;99.90
7411;DHT22;3747;48.628;9.058;2023-04-08T02:56:02;5.50;99.90
7411;DHT22;3747;48.628;9.058;2023-04-08T02:58:28;5.40;99.90
7411;DHT22;3747;48.628;9.058;2023-04-08T03:00:55;5.40;99.90
7411;DHT22;3747;48.628;9.058;2023-04-08T03:03:22;5.40;99.90
7411;DHT22;3747;48.628;9.058;2023-04-08T03:05:53;5.40;99.90
7411;DHT22;3747;48.628;9.058;2023-04-08T03:08:22;5.40;99.90
7411;DHT22;3747;48.628;9.058;2023-04-08T03:10:49;5.40;99.90
7411;DHT22;3747;48.628;9.058;2023-04-08T03:13:16;5.40;99.90
7411;DHT22;3747;48.628;9.058;2023-04-08T03:15:43;5.40;99.90
7411;DHT22;3747;48.628;9.058;2023-04-08T03:18:09;5.40;99.90
7411;DHT22;3747;48.628;9.058;2023-04-08T03:20:36;5.30;99.90
7411;DHT22;3747;48.628;9.058;2023-04-08T03:23:03;5.30;99.90
7411;DHT22;3747;48.628;9.058;2023-04-08T03:25:31;5.30;99.90
7411;DHT22;3747;48.628;9.058;2023-04-08T03:27:58;5.30;99.90
7411;DHT22;3747;48.628;9.058;2023-04-08T03:30:25;5.30;99.90
7411;DHT22;3747;48.628;9.058;2023-04-08T03:32:51;5.30;99.90
7411;DHT22;3747;48.628;9.058;2023-04-08T03:35:18;5.30;99.90
7411;DHT22;3747;48.628;9.058;2023-04-08T03:37:45;5.30;99.90
7411;DHT22;3747;48.628;9.058;2023-04-08T03:40:12;5.30;99.90
7411;DHT22;3747;48.628;9.058;2023-04-08T03:42:40;5.30;99.90
7411;DHT22;3747;48.628;9.058;2023-04-08T03:45:07;5.20;99.90
7411;DHT22;3747;48.628;9.058;2023-04-08T03:47:34;5.20;99.90
7411;DHT22;3747;48.628;9.058;2023-04-08T03:50:01;5.20;99.90
7411;DHT22;3747;48.628;9.058;2023-04-08T03:52:27;5.20;99.90
7411;DHT22;3747;48.628;9.058;2023-04-08T03:54:54;5.20;99.90
7411;DHT22;3747;48.628;9.058;2023-04-08T03:57:21;5.20;99.90
7411;DHT22;3747;48.628;9.058;2023-04-08T03:59:49;5.20;99.90
7411;DHT22;3747;48.628;9.058;2023-04-08T04:02:15;5.20;99.90
7411;DHT22;3747;48.628;9.058;2023-04-08T04:04:42;5.20;99.90
7411;DHT22;3747;48.628;9.058;2023-04-08T04:07:09;5.20;99.90
7411;DHT22;3747;48.628;9.058;2023-04-08T04:09:35;5.20;99.90
7411;DHT22;3747;48.628;9.058;2023-04-08T04:12:02;5.20;99.90
7411;DHT22;3747;48.628;9.058;2023-04-08T04:14:29;5.20;99.90
7411;DHT22;3747;48.628;9.058;2023-04-08T04:16:57;5.20;99.90
7411;DHT22;3747;48.628;9.058;2023-04-08T04:19:24;5.20;99.90
7411;DHT22;3747;48.628;9.058;2023-04-08T04:21:50;5.20;99.90
7411;DHT22;3747;48.628;9.058;2023-04-08T04:24:17;5.20;99.90
7411;DHT22;3747;48.628;9.058;2023-04-08T04:26:44;5.20;99.90
7411;DHT22;3747;48.628;9.058;2023-04-08T04:29:10;5.20;99.90
7411;DHT22;3747;48.628;9.058;2023-04-08T04:31:37;5.20;99.90
7411;DHT22;3747;48.628;9.058;2023-04-08T04:34:05;5.20;99.90
7411;DHT22;3747;48.628;9.058;2023-04-08T04:36:32;5.20;99.90
7411;DHT22;3747;48.628;9.058;2023-04-08T04:38:58;5.10;99.90
7411;DHT22;3747;48.628;9.058;2023-04-08T04:41:25;5.10;99.90
7411;DHT22;3747;48.628;9.058;2023-04-08T04:43:52;5.10;99.90
7411;DHT22;3747;48.628;9.058;2023-04-08T04:46:19;5.20;99.90
7411;DHT22;3747;48.628;9.058;2023-04-08T04:48:45;5.20;99.90
7411;DHT22;3747;48.628;9.058;2023-04-08T04:51:14;5.20;99.90
7411;DHT22;3747;48.628;9.058;2023-04-08T04:53:40;5.30;99.90
7411;DHT22;3747;48.628;9.058;2023-04-08T04:56:07;5.30;99.90
7411;DHT22;3747;48.628;9.058;2023-04-08T04:58:34;5.40;99.90
7411;DHT22;3747;48.628;9.058;2023-04-08T05:01:01;5.40;99.90
7411;DHT22;3747;48.628;9.058;2023-04-08T05:03:28;5.40;99.90
7411;DHT22;3747;48.628;9.058;2023-04-08T05:05:54;5.40;99.90
7411;DHT22;3747;48.628;9.058;2023-04-08T05:08:22;5.40;99.90
7411;DHT22;3747;48.628;9.058;2023-04-08T05:10:49;5.30;99.90
7411;DHT22;3747;48.628;9.058;2023-04-08T05:13:16;5.20;99.90
7411;DHT22;3747;48.628;9.058;2023-04-08T05:15:43;5.20;99.90
7411;DHT22;3747;48.628;9.058;2023-04-08T05:18:10;5.20;99.90
7411;DHT22;3747;48.628;9.058;2023-04-08T05:20:37;5.20;99.90
7411;DHT22;3747;48.628;9.058;2023-04-08T05:23:04;5.20;99.90
7411;DHT22;3747;48.628;9.058;2023-04-08T05:25:33;5.30;99.90
7411;DHT22;3747;48.628;9.058;2023-04-08T05:28:00;5.40;99.90
7411;DHT22;3747;48.628;9.058;2023-04-08T05:30:27;5.50;99.90
7411;DHT22;3747;48.628;9.058;2023-04-08T05:32:54;5.50;99.90
7411;DHT22;3747;48.628;9.058;2023-04-08T05:35:20;5.60;99.90
7411;DHT22;3747;48.628;9.058;2023-04-08T05:37:47;5.50;99.90
7411;DHT22;3747;48.628;9.058;2023-04-08T05:40:14;5.50;99.90
7411;DHT22;3747;48.628;9.058;2023-04-08T05:42:42;5.60;99.90
7411;DHT22;3747;48.628;9.058;2023-04-08T05:45:09;5.60;99.90
7411;DHT22;3747;48.628;9.058;2023-04-08T05:47:36;5.70;99.90
7411;DHT22;3747;48.628;9.058;2023-04-08T05:50:03;5.70;99.90
7411;DHT22;3747;48.628;9.058;2023-04-08T05:52:30;5.80;99.90
7411;DHT22;3747;48.628;9.058;2023-04-08T05:54:57;5.90;99.90
7411;DHT22;3747;48.628;9.058;2023-04-08T05:57:24;6.00;99.90
7411;DHT22;3747;48.628;9.058;2023-04-08T05:59:52;6.00;99.90
7411;DHT22;3747;48.628;9.058;2023-04-08T06:02:18;6.00;99.90
7411;DHT22;3747;48.628;9.058;2023-04-08T06:04:45;6.10;99.90
7411;DHT22;3747;48.628;9.058;2023-04-08T06:07:12;6.10;99.90
7411;DHT22;3747;48.628;9.058;2023-04-08T06:09:39;6.20;99.90
7411;DHT22;3747;48.628;9.058;2023-04-08T06:12:05;6.30;99.90
7411;DHT22;3747;48.628;9.058;2023-04-08T06:14:32;6.30;99.90
7411;DHT22;3747;48.628;9.058;2023-04-08T06:17:00;6.20;99.90
7411;DHT22;3747;48.628;9.058;2023-04-08T06:19:27;6.20;99.90
7411;DHT22;3747;48.628;9.058;2023-04-08T06:21:53;6.30;99.90
7411;DHT22;3747;48.628;9.058;2023-04-08T06:24:23;6.40;99.90
7411;DHT22;3747;48.628;9.058;2023-04-08T06:26:50;6.50;99.90
7411;DHT22;3747;48.628;9.058;2023-04-08T06:29:18;6.60;99.90
7411;DHT22;3747;48.628;9.058;2023-04-08T06:31:44;6.60;99.90
7411;DHT22;3747;48.628;9.058;2023-04-08T06:34:12;6.50;99.90
7411;DHT22;3747;48.628;9.058;2023-04-08T06:36:39;6.60;99.90
7411;DHT22;3747;48.628;9.058;2023-04-08T06:39:06;6.50;99.90
7411;DHT22;3747;48.628;9.058;2023-04-08T06:41:33;6.50;99.90
7411;DHT22;3747;48.628;9.058;2023-04-08T06:44:00;6.40;99.90
7411;DHT22;3747;48.628;9.058;2023-04-08T06:46:26;6.40;99.90
7411;DHT22;3747;48.628;9.058;2023-04-08T06:48:53;6.50;99.90
7411;DHT22;3747;48.628;9.058;2023-04-08T06:51:21;6.50;99.90
7411;DHT22;3747;48.628;9.058;2023-04-08T06:53:48;6.40;99.90
7411;DHT22;3747;48.628;9.058;2023-04-08T06:56:14;6.40;99.90
7411;DHT22;3747;48.628;9.058;2023-04-08T06:58:41;6.40;99.90
7411;DHT22;3747;48.628;9.058;2023-04-08T07:01:08;6.30;99.90
7411;DHT22;3747;48.628;9.058;2023-04-08T07:03:35;6.30;99.90
7411;DHT22;3747;48.628;9.058;2023-04-08T07:06:02;6.30;99.90
7411;DHT22;3747;48.628;9.058;2023-04-08T07:08:31;6.40;99.90
7411;DHT22;3747;48.628;9.058;2023-04-08T07:10:57;6.60;99.90
7411;DHT22;3747;48.628;9.058;2023-04-08T07:13:24;6.70;99.90
7411;DHT22;3747;48.628;9.058;2023-04-08T07:15:51;6.90;99.90
7411;DHT22;3747;48.628;9.058;2023-04-08T07:18:18;7.10;99.90
7411;DHT22;3747;48.628;9.058;2023-04-08T07:20:49;7.20;99.90
7411;DHT22;3747;48.628;9.058;2023-04-08T07:23:17;7.20;99.90
7411;DHT22;3747;48.628;9.058;2023-04-08T07:25:46;7.10;99.90
7411;DHT22;3747;48.628;9.058;2023-04-08T07:28:13;7.30;99.90
7411;DHT22;3747;48.628;9.058;2023-04-08T07:30:40;7.20;99.90
7411;DHT22;3747;48.628;9.058;2023-04-08T07:33:06;7.00;99.90
7411;DHT22;3747;48.628;9.058;2023-04-08T07:35:33;6.90;99.90
7411;DHT22;3747;48.628;9.058;2023-04-08T07:38:00;6.80;99.90
7411;DHT22;3747;48.628;9.058;2023-04-08T07:40:26;6.80;99.90
7411;DHT22;3747;48.628;9.058;2023-04-08T07:42:55;6.80;99.90
7411;DHT22;3747;48.628;9.058;2023-04-08T07:45:22;6.80;99.90
7411;DHT22;3747;48.628;9.058;2023-04-08T07:47:49;6.70;99.90
7411;DHT22;3747;48.628;9.058;2023-04-08T07:50:15;6.70;99.90
7411;DHT22;3747;48.628;9.058;2023-04-08T07:52:42;6.80;99.90
7411;DHT22;3747;48.628;9.058;2023-04-08T07:55:09;6.80;99.90
7411;DHT22;3747;48.628;9.058;2023-04-08T07:57:41;6.80;99.90
7411;DHT22;3747;48.628;9.058;2023-04-08T08:00:10;7.00;99.90
7411;DHT22;3747;48.628;9.058;2023-04-08T08:02:39;6.90;99.90
7411;DHT22;3747;48.628;9.058;2023-04-08T08:05:07;7.10;99.90
7411;DHT22;3747;48.628;9.058;2023-04-08T08:07:33;7.20;99.90
7411;DHT22;3747;48.628;9.058;2023-04-08T08:10:00;7.20;99.90
7411;DHT22;3747;48.628;9.058;2023-04-08T08:12:27;7.40;99.90
7411;DHT22;3747;48.628;9.058;2023-04-08T08:14:54;7.50;99.90
7411;DHT22;3747;48.628;9.058;2023-04-08T08:17:24;7.80;99.90
7411;DHT22;3747;48.628;9.058;2023-04-08T08:19:54;8.00;99.90
7411;DHT22;3747;48.628;9.058;2023-04-08T08:22:21;8.30;99.90
7411;DHT22;3747;48.628;9.058;2023-04-08T08:24:48;8.40;99.90
7411;DHT22;3747;48.628;9.058;2023-04-08T08:27:14;8.50;99.90
7411;DHT22;3747;48.628;9.058;2023-04-08T08:29:41;8.50;99.90
7411;DHT22;3747;48.628;9.058;2023-04-08T08:32:08;8.70;99.90
7411;DHT22;3747;48.628;9.058;2023-04-08T08:34:36;8.80;99.90
7411;DHT22;3747;48.628;9.058;2023-04-08T08:37:02;9.20;99.90
7411;DHT22;3747;48.628;9.058;2023-04-08T08:39:29;9.30;99.90
7411;DHT22;3747;48.628;9.058;2023-04-08T08:41:57;9.10;99.90
7411;DHT22;3747;48.628;9.058;2023-04-08T08:44:23;9.00;99.90
7411;DHT22;3747;48.628;9.058;2023-04-08T08:46:51;9.00;99.90
7411;DHT22;3747;48.628;9.058;2023-04-08T08:49:18;8.80;99.90
7411;DHT22;3747;48.628;9.058;2023-04-08T08:51:46;8.70;99.90
7411;DHT22;3747;48.628;9.058;2023-04-08T08:54:14;8.70;99.90
7411;DHT22;3747;48.628;9.058;2023-04-08T08:56:41;8.90;99.90
7411;DHT22;3747;48.628;9.058;2023-04-08T08:59:08;8.90;99.90
7411;DHT22;3747;48.628;9.058;2023-04-08T09:01:37;8.90;99.90
7411;DHT22;3747;48.628;9.058;2023-04-08T09:04:07;9.20;99.90
7411;DHT22;3747;48.628;9.058;2023-04-08T09:06:34;9.00;99.90
7411;DHT22;3747;48.628;9.058;2023-04-08T09:09:03;9.10;99.90
7411;DHT22;3747;48.628;9.058;2023-04-08T09:11:34;9.20;99.90
7411;DHT22;3747;48.628;9.058;2023-04-08T09:14:01;9.30;99.90
7411;DHT22;3747;48.628;9.058;2023-04-08T09:16:29;9.60;99.90
7411;DHT22;3747;48.628;9.058;2023-04-08T09:19:08;9.20;99.90
7411;DHT22;3747;48.628;9.058;2023-04-08T09:21:35;9.30;99.90
7411;DHT22;3747;48.628;9.058;2023-04-08T09:24:03;9.40;99.90
7411;DHT22;3747;48.628;9.058;2023-04-08T09:26:29;9.60;99.90
7411;DHT22;3747;48.628;9.058;2023-04-08T09:28:57;9.80;99.90
7411;DHT22;3747;48.628;9.058;2023-04-08T09:31:25;9.80;99.90
7411;DHT22;3747;48.628;9.058;2023-04-08T09:33:55;10.00;99.90
7411;DHT22;3747;48.628;9.058;2023-04-08T09:36:22;10.10;99.90
7411;DHT22;3747;48.628;9.058;2023-04-08T09:38:49;10.00;99.90
7411;DHT22;3747;48.628;9.058;2023-04-08T09:41:18;10.60;99.90
7411;DHT22;3747;48.628;9.058;2023-04-08T09:43:49;10.80;99.90
7411;DHT22;3747;48.628;9.058;2023-04-08T09:46:17;10.90;99.90
7411;DHT22;3747;48.628;9.058;2023-04-08T09:48:57;11.20;99.90
7411;DHT22;3747;48.628;9.058;2023-04-08T09:51:30;10.70;99.90
7411;DHT22;3747;48.628;9.058;2023-04-08T09:54:02;10.60;99.90
7411;DHT22;3747;48.628;9.058;2023-04-08T09:56:38;10.60;99.90
7411;DHT22;3747;48.628;9.058;2023-04-08T09:59:12;11.10;99.90
7411;DHT22;3747;48.628;9.058;2023-04-08T10:01:46;11.10;99.90
7411;DHT22;3747;48.628;9.058;2023-04-08T10:04:18;11.00;99.90
7411;DHT22;3747;48.628;9.058;2023-04-08T10:06:49;10.90;99.90
7411;DHT22;3747;48.628;9.058;2023-04-08T10:09:18;11.20;99.90
7411;DHT22;3747;48.628;9.058;2023-04-08T10:11:47;11.10;99.90
7411;DHT22;3747;48.628;9.058;2023-04-08T10:14:14;10.70;99.90
7411;DHT22;3747;48.628;9.058;2023-04-08T10:16:40;11.00;99.90
7411;DHT22;3747;48.628;9.058;2023-04-08T10:19:34;11.20;99.90
7411;DHT22;3747;48.628;9.058;2023-04-08T10:22:01;11.70;99.90
7411;DHT22;3747;48.628;9.058;2023-04-08T10:24:28;12.40;99.90
7411;DHT22;3747;48.628;9.058;2023-04-08T10:26:56;12.70;99.90
7411;DHT22;3747;48.628;9.058;2023-04-08T10:29:30;12.90;99.90
7411;DHT22;3747;48.628;9.058;2023-04-08T10:31:58;13.50;99.90
7411;DHT22;3747;48.628;9.058;2023-04-08T10:34:25;13.80;99.90
7411;DHT22;3747;48.628;9.058;2023-04-08T10:36:53;13.90;99.90
7411;DHT22;3747;48.628;9.058;2023-04-08T10:39:21;13.30;99.90
7411;DHT22;3747;48.628;9.058;2023-04-08T10:41:49;13.00;99.90
7411;DHT22;3747;48.628;9.058;2023-04-08T10:44:17;12.70;99.90
7411;DHT22;3747;48.628;9.058;2023-04-08T10:46:44;12.60;99.90
7411;DHT22;3747;48.628;9.058;2023-04-08T10:49:11;12.60;99.90
7411;DHT22;3747;48.628;9.058;2023-04-08T10:51:38;12.10;99.90
7411;DHT22;3747;48.628;9.058;2023-04-08T10:54:06;12.00;99.90
7411;DHT22;3747;48.628;9.058;2023-04-08T10:56:34;11.60;99.90
7411;DHT22;3747;48.628;9.058;2023-04-08T10:59:01;11.30;99.90
7411;DHT22;3747;48.628;9.058;2023-04-08T11:01:38;10.50;99.90
7411;DHT22;3747;48.628;9.058;2023-04-08T11:04:10;10.20;99.90
7411;DHT22;3747;48.628;9.058;2023-04-08T11:06:37;10.10;99.90
7411;DHT22;3747;48.628;9.058;2023-04-08T11:09:04;10.00;99.90
7411;DHT22;3747;48.628;9.058;2023-04-08T11:11:31;10.10;99.90
7411;DHT22;3747;48.628;9.058;2023-04-08T11:13:57;10.10;99.90
7411;DHT22;3747;48.628;9.058;2023-04-08T11:16:25;10.20;99.90
7411;DHT22;3747;48.628;9.058;2023-04-08T11:18:55;10.10;99.90
7411;DHT22;3747;48.628;9.058;2023-04-08T11:21:22;10.20;99.90
7411;DHT22;3747;48.628;9.058;2023-04-08T11:23:50;9.90;99.90
7411;DHT22;3747;48.628;9.058;2023-04-08T11:26:17;9.70;99.90
7411;DHT22;3747;48.628;9.058;2023-04-08T11:28:44;9.60;99.90
7411;DHT22;3747;48.628;9.058;2023-04-08T11:31:14;9.40;99.90
7411;DHT22;3747;48.628;9.058;2023-04-08T11:33:45;9.50;99.90
7411;DHT22;3747;48.628;9.058;2023-04-08T11:36:14;9.50;99.90
7411;DHT22;3747;48.628;9.058;2023-04-08T11:38:43;9.60;99.90
7411;DHT22;3747;48.628;9.058;2023-04-08T11:41:12;9.60;99.90
7411;DHT22;3747;48.628;9.058;2023-04-08T11:43:44;9.50;99.90
7411;DHT22;3747;48.628;9.058;2023-04-08T11:46:15;9.40;99.90
7411;DHT22;3747;48.628;9.058;2023-04-08T11:48:59;9.30;99.90
7411;DHT22;3747;48.628;9.058;2023-04-08T11:51:28;9.30;99.90
7411;DHT22;3747;48.628;9.058;2023-04-08T11:53:55;9.10;99.90
7411;DHT22;3747;48.628;9.058;2023-04-08T11:56:23;9.30;99.90
7411;DHT22;3747;48.628;9.058;2023-04-08T11:58:51;9.50;99.90
7411;DHT22;3747;48.628;9.058;2023-04-08T12:01:18;9.60;99.90
7411;DHT22;3747;48.628;9.058;2023-04-08T12:03:58;9.50;99.90
7411;DHT22;3747;48.628;9.058;2023-04-08T12:06:26;9.60;99.90
7411;DHT22;3747;48.628;9.058;2023-04-08T12:08:55;9.70;99.90
7411;DHT22;3747;48.628;9.058;2023-04-08T12:11:22;9.90;99.90
7411;DHT22;3747;48.628;9.058;2023-04-08T12:13:49;10.00;99.90
7411;DHT22;3747;48.628;9.058;2023-04-08T12:16:17;9.80;99.90
7411;DHT22;3747;48.628;9.058;2023-04-08T12:18:43;9.80;99.90
7411;DHT22;3747;48.628;9.058;2023-04-08T12:21:11;9.70;99.90
7411;DHT22;3747;48.628;9.058;2023-04-08T12:23:37;9.70;99.90
7411;DHT22;3747;48.628;9.058;2023-04-08T12:26:06;9.50;99.90
7411;DHT22;3747;48.628;9.058;2023-04-08T12:28:33;9.50;99.90
7411;DHT22;3747;48.628;9.058;2023-04-08T12:31:00;9.40;99.90
7411;DHT22;3747;48.628;9.058;2023-04-08T12:33:27;9.50;99.90
7411;DHT22;3747;48.628;9.058;2023-04-08T12:35:54;9.70;99.90
7411;DHT22;3747;48.628;9.058;2023-04-08T12:38:22;9.70;99.90
7411;DHT22;3747;48.628;9.058;2023-04-08T12:40:49;9.80;99.90
7411;DHT22;3747;48.628;9.058;2023-04-08T12:43:17;10.00;99.90
7411;DHT22;3747;48.628;9.058;2023-04-08T12:45:44;10.10;99.90
7411;DHT22;3747;48.628;9.058;2023-04-08T12:48:10;10.10;99.90
7411;DHT22;3747;48.628;9.058;2023-04-08T12:50:37;10.00;99.90
7411;DHT22;3747;48.628;9.058;2023-04-08T12:53:04;9.80;99.90
7411;DHT22;3747;48.628;9.058;2023-04-08T12:55:31;9.70;99.90
7411;DHT22;3747;48.628;9.058;2023-04-08T12:57:58;9.60;99.90
7411;DHT22;3747;48.628;9.058;2023-04-08T13:00:26;9.30;99.90
7411;DHT22;3747;48.628;9.058;2023-04-08T13:02:53;9.30;99.90
7411;DHT22;3747;48.628;9.058;2023-04-08T13:05:19;9.10;99.90
7411;DHT22;3747;48.628;9.058;2023-04-08T13:07:46;8.80;99.90
7411;DHT22;3747;48.628;9.058;2023-04-08T13:10:13;8.70;99.90
7411;DHT22;3747;48.628;9.058;2023-04-08T13:12:40;8.60;99.90
7411;DHT22;3747;48.628;9.058;2023-04-08T13:15:07;8.50;99.90
7411;DHT22;3747;48.628;9.058;2023-04-08T13:17:36;8.40;99.90
7411;DHT22;3747;48.628;9.058;2023-04-08T13:20:04;8.30;99.90
7411;DHT22;3747;48.628;9.058;2023-04-08T13:22:32;8.20;99.90
7411;DHT22;3747;48.628;9.058;2023-04-08T13:24:58;8.30;99.90
7411;DHT22;3747;48.628;9.058;2023-04-08T13:27:26;8.40;99.90
7411;DHT22;3747;48.628;9.058;2023-04-08T13:29:54;8.50;99.90
7411;DHT22;3747;48.628;9.058;2023-04-08T13:32:20;8.50;99.90
7411;DHT22;3747;48.628;9.058;2023-04-08T13:34:48;8.60;99.90
7411;DHT22;3747;48.628;9.058;2023-04-08T13:37:15;8.60;99.90
7411;DHT22;3747;48.628;9.058;2023-04-08T13:39:42;8.70;99.90
7411;DHT22;3747;48.628;9.058;2023-04-08T13:42:08;8.80;99.90
7411;DHT22;3747;48.628;9.058;2023-04-08T13:44:35;8.80;99.90
7411;DHT22;3747;48.628;9.058;2023-04-08T13:47:02;8.80;99.90
7411;DHT22;3747;48.628;9.058;2023-04-08T13:49:29;8.90;99.90
7411;DHT22;3747;48.628;9.058;2023-04-08T13:51:57;9.00;99.90
7411;DHT22;3747;48.628;9.058;2023-04-08T13:54:24;9.30;99.90
7411;DHT22;3747;48.628;9.058;2023-04-08T13:56:50;9.50;99.90
7411;DHT22;3747;48.628;9.058;2023-04-08T13:59:17;9.60;99.90
7411;DHT22;3747;48.628;9.058;2023-04-08T14:01:44;9.70;99.90
7411;DHT22;3747;48.628;9.058;2023-04-08T14:04:10;9.80;99.90
7411;DHT22;3747;48.628;9.058;2023-04-08T14:06:37;9.90;99.90
7411;DHT22;3747;48.628;9.058;2023-04-08T14:09:05;9.90;99.90
7411;DHT22;3747;48.628;9.058;2023-04-08T14:11:32;10.10;99.90
7411;DHT22;3747;48.628;9.058;2023-04-08T14:14:02;10.10;99.90
7411;DHT22;3747;48.628;9.058;2023-04-08T14:16:28;10.20;99.90
7411;DHT22;3747;48.628;9.058;2023-04-08T14:18:56;10.30;99.90
7411;DHT22;3747;48.628;9.058;2023-04-08T14:21:23;10.30;99.90
7411;DHT22;3747;48.628;9.058;2023-04-08T14:23:50;10.20;99.90
7411;DHT22;3747;48.628;9.058;2023-04-08T14:26:18;10.20;99.90
7411;DHT22;3747;48.628;9.058;2023-04-08T14:28:45;10.10;99.90
7411;DHT22;3747;48.628;9.058;2023-04-08T14:31:12;10.00;99.90
7411;DHT22;3747;48.628;9.058;2023-04-08T14:33:39;10.10;99.90
7411;DHT22;3747;48.628;9.058;2023-04-08T14:36:06;10.00;99.90
7411;DHT22;3747;48.628;9.058;2023-04-08T14:38:33;10.00;99.90
7411;DHT22;3747;48.628;9.058;2023-04-08T14:41:00;10.00;99.90
7411;DHT22;3747;48.628;9.058;2023-04-08T14:43:28;10.00;99.90
7411;DHT22;3747;48.628;9.058;2023-04-08T14:45:55;10.10;99.90
7411;DHT22;3747;48.628;9.058;2023-04-08T14:48:21;10.10;99.90
7411;DHT22;3747;48.628;9.058;2023-04-08T14:50:50;9.90;99.90
7411;DHT22;3747;48.628;9.058;2023-04-08T14:53:16;9.90;99.90
7411;DHT22;3747;48.628;9.058;2023-04-08T14:55:43;10.00;99.90
7411;DHT22;3747;48.628;9.058;2023-04-08T14:58:10;10.10;99.90
7411;DHT22;3747;48.628;9.058;2023-04-08T15:00:38;10.30;99.90
7411;DHT22;3747;48.628;9.058;2023-04-08T15:03:08;10.10;99.90
7411;DHT22;3747;48.628;9.058;2023-04-08T15:05:35;9.70;99.90
7411;DHT22;3747;48.628;9.058;2023-04-08T15:08:02;9.60;99.90
7411;DHT22;3747;48.628;9.058;2023-04-08T15:10:29;9.60;99.90
7411;DHT22;3747;48.628;9.058;2023-04-08T15:12:56;9.60;99.90
7411;DHT22;3747;48.628;9.058;2023-04-08T15:15:22;9.60;99.90
7411;DHT22;3747;48.628;9.058;2023-04-08T15:17:51;9.70;99.90
7411;DHT22;3747;48.628;9.058;2023-04-08T15:20:17;9.80;99.90
7411;DHT22;3747;48.628;9.058;2023-04-08T15:22:44;9.70;99.90
7411;DHT22;3747;48.628;9.058;2023-04-08T15:25:11;9.50;99.90
7411;DHT22;3747;48.628;9.058;2023-04-08T15:27:42;9.50;99.90
7411;DHT22;3747;48.628;9.058;2023-04-08T15:30:09;9.50;99.90
7411;DHT22;3747;48.628;9.058;2023-04-08T15:32:36;9.30;99.90
7411;DHT22;3747;48.628;9.058;2023-04-08T15:35:05;9.20;99.90
7411;DHT22;3747;48.628;9.058;2023-04-08T15:37:32;9.10;99.90
7411;DHT22;3747;48.628;9.058;2023-04-08T15:39:59;9.00;99.90
7411;DHT22;3747;48.628;9.058;2023-04-08T15:42:25;9.00;99.90
7411;DHT22;3747;48.628;9.058;2023-04-08T15:44:52;8.90;99.90
7411;DHT22;3747;48.628;9.058;2023-04-08T15:47:20;8.90;99.90
7411;DHT22;3747;48.628;9.058;2023-04-08T15:49:47;8.90;99.90
7411;DHT22;3747;48.628;9.058;2023-04-08T15:52:15;8.90;99.90
7411;DHT22;3747;48.628;9.058;2023-04-08T15:54:42;8.90;99.90
7411;DHT22;3747;48.628;9.058;2023-04-08T15:57:08;8.80;99.90
7411;DHT22;3747;48.628;9.058;2023-04-08T15:59:35;8.80;99.90
7411;DHT22;3747;48.628;9.058;2023-04-08T16:02:02;8.80;99.90
7411;DHT22;3747;48.628;9.058;2023-04-08T16:04:29;8.80;99.90
7411;DHT22;3747;48.628;9.058;2023-04-08T16:06:55;8.90;99.90
7411;DHT22;3747;48.628;9.058;2023-04-08T16:09:23;8.90;99.90
7411;DHT22;3747;48.628;9.058;2023-04-08T16:11:51;8.90;99.90
7411;DHT22;3747;48.628;9.058;2023-04-08T16:14:18;8.80;99.90
7411;DHT22;3747;48.628;9.058;2023-04-08T16:16:45;8.90;99.90